sensor_id;sensor_type;location;lat;lon;timestamp;pressure;altitude;pressure_sealevel;temperature;humidity
56420;BME280;42323;52.170;7.538;2023-09-19T00:02:05;100233.75;;;15.31;nan
56420;BME280;42323;52.170;7.538;2023-09-19T00:04:33;100213.28;;;15.26;nan
56420;BME280;42323;52.170;7.538;2023-09-19T00:06:59;100230.72;;;15.27;nan
56420;BME280;42323;52.170;7.538;2023-09-19T00:09:29;100218.78;;;15.25;nan
56420;BME280;42323;52.170;7.538;2023-09-19T00:11:56;100219.34;;;15.27;nan
56420;BME280;42323;52.170;7.538;2023-09-19T00:14:25;100228.84;;;15.35;nan
56420;BME280;42323;52.170;7.538;2023-09-19T00:16:51;100237.41;;;15.30;nan
56420;BME280;42323;52.170;7.538;2023-09-19T00:19:18;100241.97;;;15.41;nan
56420;BME280;42323;52.170;7.538;2023-09-19T00:21:44;100234.41;;;15.45;nan
56420;BME280;42323;52.170;7.538;2023-09-19T00:24:12;100247.41;;;15.46;nan
56420;BME280;42323;52.170;7.538;2023-09-19T00:26:40;100254.22;;;15.54;nan
56420;BME280;42323;52.170;7.538;2023-09-19T00:29:06;100252.19;;;15.56;nan
56420;BME280;42323;52.170;7.538;2023-09-19T00:31:35;100258.56;;;15.48;nan
56420;BME280;42323;52.170;7.538;2023-09-19T00:34:04;100245.50;;;15.53;nan
56420;BME280;42323;52.170;7.538;2023-09-19T00:36:30;100261.31;;;15.60;nan
56420;BME280;42323;52.170;7.538;2023-09-19T00:38:57;100255.50;;;15.51;nan
56420;BME280;42323;52.170;7.538;2023-09-19T00:41:23;100255.13;;;15.48;nan
56420;BME280;42323;52.170;7.538;2023-09-19T00:43:51;100247.53;;;15.33;nan
56420;BME280;42323;52.170;7.538;2023-09-19T00:46:17;100267.56;;;15.41;nan
56420;BME280;42323;52.170;7.538;2023-09-19T00:48:44;100273.09;;;15.32;nan
56420;BME280;42323;52.170;7.538;2023-09-19T00:51:12;100260.63;;;15.21;nan
56420;BME280;42323;52.170;7.538;2023-09-19T00:53:46;100272.03;;;15.15;nan
56420;BME280;42323;52.170;7.538;2023-09-19T00:56:14;100256.75;;;14.99;nan
56420;BME280;42323;52.170;7.538;2023-09-19T00:58:45;100260.03;;;14.94;nan
56420;BME280;42323;52.170;7.538;2023-09-19T01:01:16;100280.03;;;15.02;nan
56420;BME280;42323;52.170;7.538;2023-09-19T01:03:44;100288.00;;;14.95;nan
56420;BME280;42323;52.170;7.538;2023-09-19T01:06:11;100289.47;;;14.91;nan
56420;BME280;42323;52.170;7.538;2023-09-19T01:08:38;100290.13;;;14.80;nan
56420;BME280;42323;52.170;7.538;2023-09-19T01:11:21;100302.31;;;14.81;nan
56420;BME280;42323;52.170;7.538;2023-09-19T01:16:59;100307.19;;;14.77;nan
56420;BME280;42323;52.170;7.538;2023-09-19T01:23:00;100309.63;;;14.79;nan
56420;BME280;42323;52.170;7.538;2023-09-19T01:25:54;100307.41;;;14.76;nan
56420;BME280;42323;52.170;7.538;2023-09-19T01:31:14;100310.47;;;14.73;nan
56420;BME280;42323;52.170;7.538;2023-09-19T01:36:23;100320.97;;;14.79;nan
56420;BME280;42323;52.170;7.538;2023-09-19T01:38:51;100322.97;;;14.84;nan
56420;BME280;42323;52.170;7.538;2023-09-19T01:41:26;100325.41;;;14.86;nan
56420;BME280;42323;52.170;7.538;2023-09-19T01:43:56;100329.28;;;14.83;nan
56420;BME280;42323;52.170;7.538;2023-09-19T01:46:30;100327.22;;;14.85;nan
56420;BME280;42323;52.170;7.538;2023-09-19T01:51:51;100330.66;;;14.92;nan
56420;BME280;42323;52.170;7.538;2023-09-19T01:54:26;100339.75;;;14.96;nan
56420;BME280;42323;52.170;7.538;2023-09-19T01:57:14;100339.38;;;14.93;nan
56420;BME280;42323;52.170;7.538;2023-09-19T01:59:48;100332.31;;;14.87;nan
56420;BME280;42323;52.170;7.538;2023-09-19T02:02:17;100319.19;;;14.73;nan
56420;BME280;42323;52.170;7.538;2023-09-19T02:04:48;100332.78;;;14.77;nan
56420;BME280;42323;52.170;7.538;2023-09-19T02:07:16;100332.34;;;14.80;nan
56420;BME280;42323;52.170;7.538;2023-09-19T02:09:42;100329.91;;;14.78;nan
56420;BME280;42323;52.170;7.538;2023-09-19T02:12:09;100325.06;;;14.75;nan
56420;BME280;42323;52.170;7.538;2023-09-19T02:14:36;100325.84;;;14.76;nan
56420;BME280;42323;52.170;7.538;2023-09-19T02:17:03;100332.50;;;14.85;nan
56420;BME280;42323;52.170;7.538;2023-09-19T02:19:33;100341.25;;;14.86;nan
56420;BME280;42323;52.170;7.538;2023-09-19T02:22:00;100335.78;;;14.80;nan
56420;BME280;42323;52.170;7.538;2023-09-19T02:24:29;100335.22;;;14.72;nan
56420;BME280;42323;52.170;7.538;2023-09-19T02:26:56;100320.47;;;14.58;nan
56420;BME280;42323;52.170;7.538;2023-09-19T02:29:23;100328.44;;;14.51;nan
56420;BME280;42323;52.170;7.538;2023-09-19T02:31:51;100329.00;;;14.46;nan
56420;BME280;42323;52.170;7.538;2023-09-19T02:34:18;100346.28;;;14.49;nan
56420;BME280;42323;52.170;7.538;2023-09-19T02:36:44;100361.47;;;14.53;nan
56420;BME280;42323;52.170;7.538;2023-09-19T02:39:11;100345.47;;;14.48;nan
56420;BME280;42323;52.170;7.538;2023-09-19T02:41:37;100337.53;;;14.42;nan
56420;BME280;42323;52.170;7.538;2023-09-19T02:44:04;100330.47;;;14.29;nan
56420;BME280;42323;52.170;7.538;2023-09-19T02:46:34;100347.53;;;14.20;nan
56420;BME280;42323;52.170;7.538;2023-09-19T02:49:03;100369.41;;;14.27;nan
56420;BME280;42323;52.170;7.538;2023-09-19T02:51:33;100355.84;;;14.23;nan
56420;BME280;42323;52.170;7.538;2023-09-19T02:54:00;100361.53;;;14.14;nan
56420;BME280;42323;52.170;7.538;2023-09-19T02:56:29;100353.66;;;14.00;nan
56420;BME280;42323;52.170;7.538;2023-09-19T02:58:57;100365.59;;;14.10;nan
56420;BME280;42323;52.170;7.538;2023-09-19T03:01:24;100332.22;;;13.77;nan
56420;BME280;42323;52.170;7.538;2023-09-19T03:03:50;100364.59;;;13.97;nan
56420;BME280;42323;52.170;7.538;2023-09-19T03:06:17;100359.75;;;13.94;nan
56420;BME280;42323;52.170;7.538;2023-09-19T03:08:46;100362.19;;;13.89;nan
56420;BME280;42323;52.170;7.538;2023-09-19T03:11:15;100357.72;;;13.90;nan
56420;BME280;42323;52.170;7.538;2023-09-19T03:13:53;100369.06;;;13.97;nan
56420;BME280;42323;52.170;7.538;2023-09-19T03:16:20;100368.69;;;13.87;nan
56420;BME280;42323;52.170;7.538;2023-09-19T03:18:48;100350.25;;;13.73;nan
56420;BME280;42323;52.170;7.538;2023-09-19T03:21:16;100365.22;;;13.73;nan
56420;BME280;42323;52.170;7.538;2023-09-19T03:23:43;100373.56;;;13.70;nan
56420;BME280;42323;52.170;7.538;2023-09-19T03:26:13;100384.47;;;13.80;nan
56420;BME280;42323;52.170;7.538;2023-09-19T03:28:43;100397.44;;;13.81;nan
56420;BME280;42323;52.170;7.538;2023-09-19T03:31:10;100397.22;;;13.76;nan
56420;BME280;42323;52.170;7.538;2023-09-19T03:33:37;100385.72;;;13.77;nan
56420;BME280;42323;52.170;7.538;2023-09-19T03:36:04;100389.75;;;13.80;nan
56420;BME280;42323;52.170;7.538;2023-09-19T03:38:32;100379.22;;;13.67;nan
56420;BME280;42323;52.170;7.538;2023-09-19T03:41:01;100392.78;;;13.77;nan
56420;BME280;42323;52.170;7.538;2023-09-19T03:43:28;100383.47;;;13.68;nan
56420;BME280;42323;52.170;7.538;2023-09-19T03:45:55;100376.97;;;13.64;nan
56420;BME280;42323;52.170;7.538;2023-09-19T03:48:21;100377.78;;;13.64;nan
56420;BME280;42323;52.170;7.538;2023-09-19T03:50:49;100375.97;;;13.58;nan
56420;BME280;42323;52.170;7.538;2023-09-19T03:53:16;100386.09;;;13.68;nan
56420;BME280;42323;52.170;7.538;2023-09-19T03:55:44;100381.63;;;13.68;nan
56420;BME280;42323;52.170;7.538;2023-09-19T03:58:11;100384.69;;;13.72;nan
56420;BME280;42323;52.170;7.538;2023-09-19T04:00:37;100380.81;;;13.68;nan
56420;BME280;42323;52.170;7.538;2023-09-19T04:03:05;100396.81;;;13.73;nan
56420;BME280;42323;52.170;7.538;2023-09-19T04:05:33;100383.28;;;13.56;nan
56420;BME280;42323;52.170;7.538;2023-09-19T04:08:00;100406.56;;;13.66;nan
56420;BME280;42323;52.170;7.538;2023-09-19T04:10:27;100387.91;;;13.54;nan
56420;BME280;42323;52.170;7.538;2023-09-19T04:12:55;100395.00;;;13.53;nan
56420;BME280;42323;52.170;7.538;2023-09-19T04:15:23;100391.53;;;13.46;nan
56420;BME280;42323;52.170;7.538;2023-09-19T04:17:50;100413.63;;;13.59;nan
56420;BME280;42323;52.170;7.538;2023-09-19T04:20:18;100392.94;;;13.42;nan
56420;BME280;42323;52.170;7.538;2023-09-19T04:22:52;100409.97;;;13.46;nan
56420;BME280;42323;52.170;7.538;2023-09-19T04:25:18;100400.25;;;13.47;nan
56420;BME280;42323;52.170;7.538;2023-09-19T04:27:45;100413.22;;;13.48;nan
56420;BME280;42323;52.170;7.538;2023-09-19T04:30:13;100405.94;;;13.44;nan
56420;BME280;42323;52.170;7.538;2023-09-19T04:32:41;100412.81;;;13.45;nan
56420;BME280;42323;52.170;7.538;2023-09-19T04:35:08;100406.72;;;13.38;nan
56420;BME280;42323;52.170;7.538;2023-09-19T04:37:40;100387.81;;;13.14;nan
56420;BME280;42323;52.170;7.538;2023-09-19T04:40:09;100402.38;;;13.17;nan
56420;BME280;42323;52.170;7.538;2023-09-19T04:42:40;100404.63;;;13.20;nan
56420;BME280;42323;52.170;7.538;2023-09-19T04:45:07;100410.69;;;13.14;nan
56420;BME280;42323;52.170;7.538;2023-09-19T04:47:39;100418.13;;;13.03;nan
56420;BME280;42323;52.170;7.538;2023-09-19T04:50:09;100424.78;;;12.99;nan
56420;BME280;42323;52.170;7.538;2023-09-19T04:52:43;100434.53;;;13.05;nan
56420;BME280;42323;52.170;7.538;2023-09-19T04:55:12;100432.06;;;12.97;nan
56420;BME280;42323;52.170;7.538;2023-09-19T04:57:47;100444.38;;;12.90;nan
56420;BME280;42323;52.170;7.538;2023-09-19T05:00:16;100438.50;;;12.88;nan
56420;BME280;42323;52.170;7.538;2023-09-19T05:02:43;100449.25;;;12.87;nan
56420;BME280;42323;52.170;7.538;2023-09-19T05:05:10;100461.00;;;12.97;nan
56420;BME280;42323;52.170;7.538;2023-09-19T05:07:41;100463.03;;;13.02;nan
56420;BME280;42323;52.170;7.538;2023-09-19T05:10:09;100478.59;;;12.97;nan
56420;BME280;42323;52.170;7.538;2023-09-19T05:12:36;100475.13;;;12.90;nan
56420;BME280;42323;52.170;7.538;2023-09-19T05:15:04;100481.81;;;12.92;nan
56420;BME280;42323;52.170;7.538;2023-09-19T05:17:31;100479.34;;;12.84;nan
56420;BME280;42323;52.170;7.538;2023-09-19T05:19:57;100467.59;;;12.80;nan
56420;BME280;42323;52.170;7.538;2023-09-19T05:22:38;100475.31;;;12.88;nan
56420;BME280;42323;52.170;7.538;2023-09-19T05:25:07;100468.78;;;12.77;nan
56420;BME280;42323;52.170;7.538;2023-09-19T05:27:34;100474.03;;;12.77;nan
56420;BME280;42323;52.170;7.538;2023-09-19T05:30:00;100486.22;;;12.85;nan
56420;BME280;42323;52.170;7.538;2023-09-19T05:32:27;100459.25;;;12.70;nan
56420;BME280;42323;52.170;7.538;2023-09-19T05:34:53;100490.91;;;12.90;nan
56420;BME280;42323;52.170;7.538;2023-09-19T05:37:22;100492.28;;;12.86;nan
56420;BME280;42323;52.170;7.538;2023-09-19T05:39:49;100499.22;;;12.93;nan
56420;BME280;42323;52.170;7.538;2023-09-19T05:42:16;100488.91;;;12.98;nan
56420;BME280;42323;52.170;7.538;2023-09-19T05:44:43;100463.78;;;12.89;nan
56420;BME280;42323;52.170;7.538;2023-09-19T05:47:10;100481.03;;;12.98;nan
56420;BME280;42323;52.170;7.538;2023-09-19T05:49:36;100479.03;;;13.00;nan
56420;BME280;42323;52.170;7.538;2023-09-19T05:52:07;100475.41;;;13.08;nan
56420;BME280;42323;52.170;7.538;2023-09-19T05:54:33;100477.22;;;13.07;nan
56420;BME280;42323;52.170;7.538;2023-09-19T05:57:00;100483.91;;;13.10;nan
56420;BME280;42323;52.170;7.538;2023-09-19T05:59:28;100488.00;;;13.13;nan
56420;BME280;42323;52.170;7.538;2023-09-19T06:01:54;100488.00;;;13.19;nan
56420;BME280;42323;52.170;7.538;2023-09-19T06:04:21;100487.88;;;13.27;nan
56420;BME280;42323;52.170;7.538;2023-09-19T06:06:48;100500.22;;;13.34;nan
56420;BME280;42323;52.170;7.538;2023-09-19T06:09:15;100500.69;;;13.44;nan
56420;BME280;42323;52.170;7.538;2023-09-19T06:11:42;100494.44;;;13.58;nan
56420;BME280;42323;52.170;7.538;2023-09-19T06:14:09;100491.41;;;13.68;nan
56420;BME280;42323;52.170;7.538;2023-09-19T06:16:36;100465.50;;;13.71;nan
56420;BME280;42323;52.170;7.538;2023-09-19T06:19:07;100491.03;;;13.77;nan
56420;BME280;42323;52.170;7.538;2023-09-19T06:21:36;100491.84;;;13.85;nan
56420;BME280;42323;52.170;7.538;2023-09-19T06:24:03;100477.25;;;13.89;nan
56420;BME280;42323;52.170;7.538;2023-09-19T06:26:29;100469.38;;;13.95;nan
56420;BME280;42323;52.170;7.538;2023-09-19T06:28:57;100481.75;;;14.08;nan
56420;BME280;42323;52.170;7.538;2023-09-19T06:31:26;100481.75;;;14.08;nan
56420;BME280;42323;52.170;7.538;2023-09-19T06:33:52;100480.94;;;14.14;nan
56420;BME280;42323;52.170;7.538;2023-09-19T06:36:19;100486.22;;;14.08;nan
56420;BME280;42323;52.170;7.538;2023-09-19T06:38:47;100488.22;;;14.05;nan
56420;BME280;42323;52.170;7.538;2023-09-19T06:41:18;100500.38;;;14.13;nan
56420;BME280;42323;52.170;7.538;2023-09-19T06:43:45;100503.00;;;14.06;nan
56420;BME280;42323;52.170;7.538;2023-09-19T06:46:12;100499.38;;;14.01;nan
56420;BME280;42323;52.170;7.538;2023-09-19T06:48:39;100516.59;;;14.03;nan
56420;BME280;42323;52.170;7.538;2023-09-19T06:51:07;100495.50;;;13.90;nan
56420;BME280;42323;52.170;7.538;2023-09-19T06:53:34;100524.88;;;13.94;nan
56420;BME280;42323;52.170;7.538;2023-09-19T06:56:02;100521.44;;;13.87;nan
56420;BME280;42323;52.170;7.538;2023-09-19T06:58:29;100514.16;;;13.82;nan
56420;BME280;42323;52.170;7.538;2023-09-19T07:00:55;100530.59;;;14.04;nan
56420;BME280;42323;52.170;7.538;2023-09-19T07:03:23;100519.03;;;14.12;nan
56420;BME280;42323;52.170;7.538;2023-09-19T07:05:52;100518.00;;;14.19;nan
56420;BME280;42323;52.170;7.538;2023-09-19T07:08:19;100525.72;;;14.27;nan
56420;BME280;42323;52.170;7.538;2023-09-19T07:10:46;100519.84;;;14.32;nan
56420;BME280;42323;52.170;7.538;2023-09-19T07:13:16;100527.16;;;14.50;nan
56420;BME280;42323;52.170;7.538;2023-09-19T07:15:46;100533.44;;;14.69;nan
56420;BME280;42323;52.170;7.538;2023-09-19T07:18:17;100517.63;;;14.69;nan
56420;BME280;42323;52.170;7.538;2023-09-19T07:20:44;100520.63;;;14.79;nan
56420;BME280;42323;52.170;7.538;2023-09-19T07:23:18;100521.81;;;14.96;nan
56420;BME280;42323;52.170;7.538;2023-09-19T07:25:49;100529.91;;;15.01;nan
56420;BME280;42323;52.170;7.538;2023-09-19T07:28:15;100516.91;;;15.06;nan
56420;BME280;42323;52.170;7.538;2023-09-19T07:30:42;100507.19;;;15.00;nan
56420;BME280;42323;52.170;7.538;2023-09-19T07:33:09;100498.47;;;15.00;nan
56420;BME280;42323;52.170;7.538;2023-09-19T07:35:39;100519.53;;;15.20;nan
56420;BME280;42323;52.170;7.538;2023-09-19T07:38:08;100525.78;;;15.25;nan
56420;BME280;42323;52.170;7.538;2023-09-19T07:40:36;100523.34;;;15.24;nan
56420;BME280;42323;52.170;7.538;2023-09-19T07:43:03;100515.22;;;15.19;nan
56420;BME280;42323;52.170;7.538;2023-09-19T07:45:31;100534.91;;;15.29;nan
56420;BME280;42323;52.170;7.538;2023-09-19T07:47:58;100535.09;;;15.28;nan
56420;BME280;42323;52.170;7.538;2023-09-19T07:50:28;100534.28;;;15.34;nan
56420;BME280;42323;52.170;7.538;2023-09-19T07:52:55;100528.53;;;15.44;nan
56420;BME280;42323;52.170;7.538;2023-09-19T07:55:23;100541.25;;;15.60;nan
56420;BME280;42323;52.170;7.538;2023-09-19T07:57:52;100544.09;;;15.65;nan
56420;BME280;42323;52.170;7.538;2023-09-19T08:00:19;100538.19;;;15.70;nan
56420;BME280;42323;52.170;7.538;2023-09-19T08:02:46;100546.25;;;15.82;nan
56420;BME280;42323;52.170;7.538;2023-09-19T08:05:18;100541.53;;;15.90;nan
56420;BME280;42323;52.170;7.538;2023-09-19T08:07:45;100554.31;;;15.93;nan
56420;BME280;42323;52.170;7.538;2023-09-19T08:10:18;100554.09;;;15.95;nan
56420;BME280;42323;52.170;7.538;2023-09-19T08:12:46;100551.63;;;16.00;nan
56420;BME280;42323;52.170;7.538;2023-09-19T08:15:15;100545.69;;;16.04;nan
56420;BME280;42323;52.170;7.538;2023-09-19T08:17:42;100556.00;;;16.13;nan
56420;BME280;42323;52.170;7.538;2023-09-19T08:20:10;100550.84;;;16.24;nan
56420;BME280;42323;52.170;7.538;2023-09-19T08:22:53;100549.97;;;16.30;nan
56420;BME280;42323;52.170;7.538;2023-09-19T08:25:23;100545.34;;;16.26;nan
56420;BME280;42323;52.170;7.538;2023-09-19T08:27:50;100550.63;;;16.26;nan
56420;BME280;42323;52.170;7.538;2023-09-19T08:30:19;100559.72;;;16.37;nan
56420;BME280;42323;52.170;7.538;2023-09-19T08:32:50;100561.72;;;16.41;nan
56420;BME280;42323;52.170;7.538;2023-09-19T08:35:17;100547.56;;;16.29;nan
56420;BME280;42323;52.170;7.538;2023-09-19T08:37:43;100561.47;;;16.43;nan
56420;BME280;42323;52.170;7.538;2023-09-19T08:40:13;100571.06;;;16.62;nan
56420;BME280;42323;52.170;7.538;2023-09-19T08:42:50;100577.34;;;16.68;nan
56420;BME280;42323;52.170;7.538;2023-09-19T08:45:17;100552.56;;;16.62;nan
56420;BME280;42323;52.170;7.538;2023-09-19T08:50:39;100572.00;;;16.74;nan
56420;BME280;42323;52.170;7.538;2023-09-19T08:53:11;100549.09;;;16.62;nan
56420;BME280;42323;52.170;7.538;2023-09-19T08:55:46;100565.91;;;16.74;nan
56420;BME280;42323;52.170;7.538;2023-09-19T08:58:16;100560.19;;;16.77;nan
56420;BME280;42323;52.170;7.538;2023-09-19T09:00:48;100551.22;;;16.78;nan
56420;BME280;42323;52.170;7.538;2023-09-19T09:03:16;100568.66;;;16.86;nan
56420;BME280;42323;52.170;7.538;2023-09-19T09:05:47;100568.44;;;16.87;nan
56420;BME280;42323;52.170;7.538;2023-09-19T09:08:19;100566.59;;;16.88;nan
56420;BME280;42323;52.170;7.538;2023-09-19T09:10:48;100560.50;;;16.87;nan
56420;BME280;42323;52.170;7.538;2023-09-19T09:13:16;100569.41;;;16.93;nan
56420;BME280;42323;52.170;7.538;2023-09-19T09:15:43;100556.59;;;17.08;nan
56420;BME280;42323;52.170;7.538;2023-09-19T09:18:11;100576.41;;;17.24;nan
56420;BME280;42323;52.170;7.538;2023-09-19T09:20:38;100575.31;;;17.32;nan
56420;BME280;42323;52.170;7.538;2023-09-19T09:23:05;100571.81;;;17.49;nan
56420;BME280;42323;52.170;7.538;2023-09-19T09:25:51;100574.16;;;17.76;nan
56420;BME280;42323;52.170;7.538;2023-09-19T09:28:27;100562.09;;;17.92;nan
56420;BME280;42323;52.170;7.538;2023-09-19T09:30:55;100569.03;;;18.04;nan
56420;BME280;42323;52.170;7.538;2023-09-19T09:33:22;100568.41;;;18.21;nan
56420;BME280;42323;52.170;7.538;2023-09-19T09:38:20;100554.63;;;18.77;nan
56420;BME280;42323;52.170;7.538;2023-09-19T09:40:50;100549.53;;;18.99;nan
56420;BME280;42323;52.170;7.538;2023-09-19T09:43:38;100551.81;;;19.19;nan
56420;BME280;42323;52.170;7.538;2023-09-19T09:51:34;100550.66;;;19.03;nan
56420;BME280;42323;52.170;7.538;2023-09-19T09:54:17;100547.38;;;19.37;nan
56420;BME280;42323;52.170;7.538;2023-09-19T09:56:56;100564.38;;;19.64;nan
56420;BME280;42323;52.170;7.538;2023-09-19T10:02:20;100563.81;;;20.08;nan
56420;BME280;42323;52.170;7.538;2023-09-19T10:04:56;100540.28;;;20.33;nan
56420;BME280;42323;52.170;7.538;2023-09-19T10:07:41;100557.78;;;20.79;nan
56420;BME280;42323;52.170;7.538;2023-09-19T10:10:14;100555.81;;;20.92;nan
56420;BME280;42323;52.170;7.538;2023-09-19T10:12:52;100567.38;;;20.80;nan
56420;BME280;42323;52.170;7.538;2023-09-19T10:15:24;100542.00;;;20.39;nan
56420;BME280;42323;52.170;7.538;2023-09-19T10:17:53;100549.78;;;19.78;nan
56420;BME280;42323;52.170;7.538;2023-09-19T10:20:26;100532.44;;;19.47;nan
56420;BME280;42323;52.170;7.538;2023-09-19T10:23:00;100534.78;;;19.89;nan
56420;BME280;42323;52.170;7.538;2023-09-19T10:25:27;100542.41;;;20.65;nan
56420;BME280;42323;52.170;7.538;2023-09-19T10:28:00;100532.16;;;21.17;nan
56420;BME280;42323;52.170;7.538;2023-09-19T10:30:30;100532.84;;;21.29;nan
56420;BME280;42323;52.170;7.538;2023-09-19T10:33:03;100539.56;;;21.32;nan
56420;BME280;42323;52.170;7.538;2023-09-19T10:35:32;100544.34;;;21.57;nan
56420;BME280;42323;52.170;7.538;2023-09-19T10:38:03;100541.22;;;21.38;nan
56420;BME280;42323;52.170;7.538;2023-09-19T10:40:32;100542.09;;;22.30;nan
56420;BME280;42323;52.170;7.538;2023-09-19T10:43:03;100537.84;;;23.29;nan
56420;BME280;42323;52.170;7.538;2023-09-19T10:45:35;100543.59;;;22.95;nan
56420;BME280;42323;52.170;7.538;2023-09-19T10:48:05;100514.94;;;23.79;nan
56420;BME280;42323;52.170;7.538;2023-09-19T10:50:41;100519.53;;;24.40;nan
56420;BME280;42323;52.170;7.538;2023-09-19T10:53:08;100532.56;;;24.77;nan
56420;BME280;42323;52.170;7.538;2023-09-19T10:55:37;100529.94;;;24.46;nan
56420;BME280;42323;52.170;7.538;2023-09-19T10:58:05;100525.09;;;24.64;nan
56420;BME280;42323;52.170;7.538;2023-09-19T11:00:55;100529.28;;;23.27;nan
56420;BME280;42323;52.170;7.538;2023-09-19T11:03:23;100540.72;;;22.60;nan
56420;BME280;42323;52.170;7.538;2023-09-19T11:06:27;100549.44;;;23.60;nan
56420;BME280;42323;52.170;7.538;2023-09-19T11:08:55;100528.34;;;22.96;nan
56420;BME280;42323;52.170;7.538;2023-09-19T11:11:38;100541.06;;;22.36;nan
56420;BME280;42323;52.170;7.538;2023-09-19T11:14:37;100544.09;;;22.13;nan
56420;BME280;42323;52.170;7.538;2023-09-19T11:30:35;100526.91;;;22.36;nan
56420;BME280;42323;52.170;7.538;2023-09-19T11:43:48;100529.28;;;23.27;nan
56420;BME280;42323;52.170;7.538;2023-09-19T11:46:19;100508.03;;;23.93;nan
56420;BME280;42323;52.170;7.538;2023-09-19T11:48:49;100513.38;;;23.88;nan
56420;BME280;42323;52.170;7.538;2023-09-19T11:51:23;100512.56;;;24.39;nan
56420;BME280;42323;52.170;7.538;2023-09-19T11:53:55;100500.81;;;23.84;nan
56420;BME280;42323;52.170;7.538;2023-09-19T11:56:24;100498.91;;;24.04;nan
56420;BME280;42323;52.170;7.538;2023-09-19T11:58:53;100498.88;;;24.04;nan
56420;BME280;42323;52.170;7.538;2023-09-19T12:01:31;63019.00;;;-145.28;100.00
56420;BME280;42323;52.170;7.538;2023-09-19T12:04:03;63019.00;;;-145.28;100.00
56420;BME280;42323;52.170;7.538;2023-09-19T12:06:31;63019.00;;;-145.28;100.00
56420;BME280;42323;52.170;7.538;2023-09-19T12:08:59;63019.00;;;-145.28;100.00
56420;BME280;42323;52.170;7.538;2023-09-19T12:11:30;63019.00;;;-145.28;100.00
56420;BME280;42323;52.170;7.538;2023-09-19T12:14:02;63019.00;;;-145.28;100.00
56420;BME280;42323;52.170;7.538;2023-09-19T12:16:31;63019.00;;;-145.28;100.00
56420;BME280;42323;52.170;7.538;2023-09-19T12:19:17;63019.00;;;-145.28;100.00
56420;BME280;42323;52.170;7.538;2023-09-19T12:21:59;63019.00;;;-145.28;100.00
56420;BME280;42323;52.170;7.538;2023-09-19T12:24:27;63019.00;;;-145.28;100.00
56420;BME280;42323;52.170;7.538;2023-09-19T12:27:03;63019.00;;;-145.28;100.00
56420;BME280;42323;52.170;7.538;2023-09-19T12:29:44;63019.00;;;-145.28;100.00
56420;BME280;42323;52.170;7.538;2023-09-19T12:32:11;63019.00;;;-145.28;100.00
56420;BME280;42323;52.170;7.538;2023-09-19T12:34:50;63019.00;;;-145.28;100.00
56420;BME280;42323;52.170;7.538;2023-09-19T12:37:20;63019.00;;;-145.28;100.00
56420;BME280;42323;52.170;7.538;2023-09-19T12:39:51;63019.00;;;-145.28;100.00
56420;BME280;42323;52.170;7.538;2023-09-19T12:45:07;63019.00;;;-145.28;100.00
56420;BME280;42323;52.170;7.538;2023-09-19T12:47:35;63019.00;;;-145.28;100.00
56420;BME280;42323;52.170;7.538;2023-09-19T12:52:41;63019.00;;;-145.28;100.00
56420;BME280;42323;52.170;7.538;2023-09-19T12:55:22;63019.00;;;-145.28;100.00
56420;BME280;42323;52.170;7.538;2023-09-19T12:58:12;63019.00;;;-145.28;100.00
56420;BME280;42323;52.170;7.538;2023-09-19T13:00:41;63019.00;;;-145.28;100.00
56420;BME280;42323;52.170;7.538;2023-09-19T13:06:00;63019.00;;;-145.28;100.00
56420;BME280;42323;52.170;7.538;2023-09-19T13:08:30;63019.00;;;-145.28;100.00
56420;BME280;42323;52.170;7.538;2023-09-19T13:11:02;63019.00;;;-145.28;100.00
56420;BME280;42323;52.170;7.538;2023-09-19T13:13:28;63019.00;;;-145.28;100.00
56420;BME280;42323;52.170;7.538;2023-09-19T13:15:55;63019.00;;;-145.28;100.00
56420;BME280;42323;52.170;7.538;2023-09-19T13:18:24;63019.00;;;-145.28;100.00
56420;BME280;42323;52.170;7.538;2023-09-19T13:21:11;63019.00;;;-145.28;100.00
56420;BME280;42323;52.170;7.538;2023-09-19T13:23:52;63019.00;;;-145.28;100.00
56420;BME280;42323;52.170;7.538;2023-09-19T13:26:19;63019.00;;;-145.28;100.00
56420;BME280;42323;52.170;7.538;2023-09-19T13:28:46;63019.00;;;-145.28;100.00
56420;BME280;42323;52.170;7.538;2023-09-19T13:31:16;63019.00;;;-145.28;100.00
56420;BME280;42323;52.170;7.538;2023-09-19T13:33:44;63019.00;;;-145.28;100.00
56420;BME280;42323;52.170;7.538;2023-09-19T13:36:11;63019.00;;;-145.28;100.00
56420;BME280;42323;52.170;7.538;2023-09-19T13:38:42;63019.00;;;-145.28;100.00
56420;BME280;42323;52.170;7.538;2023-09-19T13:41:13;63019.00;;;-145.28;100.00
56420;BME280;42323;52.170;7.538;2023-09-19T13:43:40;63019.00;;;-145.28;100.00
56420;BME280;42323;52.170;7.538;2023-09-19T13:46:06;63019.00;;;-145.28;100.00
56420;BME280;42323;52.170;7.538;2023-09-19T13:48:42;100448.41;;;27.16;nan
56420;BME280;42323;52.170;7.538;2023-09-19T13:51:08;100447.81;;;27.00;nan
56420;BME280;42323;52.170;7.538;2023-09-19T13:53:35;100464.56;;;25.62;nan
56420;BME280;42323;52.170;7.538;2023-09-19T13:56:01;100459.84;;;23.93;nan
56420;BME280;42323;52.170;7.538;2023-09-19T13:58:28;100471.84;;;24.21;nan
56420;BME280;42323;52.170;7.538;2023-09-19T14:00:56;100462.88;;;22.93;nan
56420;BME280;42323;52.170;7.538;2023-09-19T14:03:24;100461.19;;;22.77;nan
56420;BME280;42323;52.170;7.538;2023-09-19T14:05:54;100457.19;;;21.90;nan
56420;BME280;42323;52.170;7.538;2023-09-19T14:08:21;100442.28;;;21.35;nan
56420;BME280;42323;52.170;7.538;2023-09-19T14:10:49;100459.22;;;21.01;nan
56420;BME280;42323;52.170;7.538;2023-09-19T14:13:16;100457.81;;;20.72;nan
56420;BME280;42323;52.170;7.538;2023-09-19T14:15:42;100449.16;;;20.43;nan
56420;BME280;42323;52.170;7.538;2023-09-19T14:18:10;100453.06;;;20.18;nan
56420;BME280;42323;52.170;7.538;2023-09-19T14:20:38;100475.41;;;20.17;nan